Time;durP1;ratioP1;P1;durP2;ratioP2;P2;SDS_P1;SDS_P2;PMS_P1;PMS_P2;Temp;Humidity;BMP_temperature;BMP_pressure;BME280_temperature;BME280_humidity;BME280_pressure;Samples;Min_cycle;Max_cycle;Signal;HPM_P1;HPM_P2
2023/10/15 00:01:45;;;;;;;6.15;2.13;;;7.60;99.90;;;;;;5014112;28;20067;-75
2023/10/15 00:04:12;;;;;;;2.30;0.73;;;7.70;99.90;;;;;;5014166;28;20046;-76
2023/10/15 00:06:40;;;;;;;1.02;0.60;;;7.60;99.90;;;;;;4996266;28;20053;-76
2023/10/15 00:09:06;;;;;;;6.55;0.80;;;7.60;99.90;;;;;;5012976;28;20124;-76
2023/10/15 00:11:32;;;;;;;2.60;0.70;;;7.50;99.90;;;;;;4996486;28;20081;-76
2023/10/15 00:13:58;;;;;;;2.95;0.80;;;7.40;99.90;;;;;;5014020;28;20096;-75
2023/10/15 00:16:25;;;;;;;1.15;0.50;;;7.30;99.90;;;;;;4996679;28;20501;-77
2023/10/15 00:18:51;;;;;;;2.88;0.60;;;7.20;99.90;;;;;;5013968;28;20046;-76
2023/10/15 00:21:17;;;;;;;2.92;0.63;;;7.20;99.90;;;;;;5013236;28;20050;-76
2023/10/15 00:23:44;;;;;;;2.63;0.63;;;7.10;99.90;;;;;;5013696;28;20053;-75
2023/10/15 00:26:16;;;;;;;2.65;0.65;;;7.00;99.90;;;;;;5013252;28;20054;-76
2023/10/15 00:28:45;;;;;;;3.17;0.70;;;7.00;99.90;;;;;;5012860;28;20105;-76
2023/10/15 00:31:13;;;;;;;3.58;0.82;;;6.90;99.90;;;;;;5013827;28;20089;-75
2023/10/15 00:33:42;;;;;;;2.20;1.00;;;6.90;99.90;;;;;;5012608;28;20104;-75
2023/10/15 00:36:15;;;;;;;1.98;0.63;;;6.90;99.90;;;;;;5012884;28;20489;-75
2023/10/15 00:38:43;;;;;;;2.10;0.50;;;6.80;99.90;;;;;;5013108;28;20133;-76
2023/10/15 00:41:10;;;;;;;3.63;0.80;;;6.80;99.90;;;;;;5012569;28;20046;-77
2023/10/15 00:43:36;;;;;;;1.55;0.60;;;6.90;99.90;;;;;;5013489;28;20054;-76
2023/10/15 00:46:07;;;;;;;2.90;0.60;;;6.90;99.90;;;;;;5012697;28;20391;-76
2023/10/15 00:48:36;;;;;;;4.13;0.63;;;6.90;99.90;;;;;;5013326;28;20054;-76
2023/10/15 00:51:09;;;;;;;3.13;0.68;;;7.00;99.90;;;;;;4996244;28;20141;-77
2023/10/15 00:53:47;;;;;;;1.67;0.82;;;6.90;99.90;;;;;;4996200;28;20104;-75
2023/10/15 00:56:15;;;;;;;2.08;0.55;;;6.80;99.90;;;;;;5012502;28;20138;-76
2023/10/15 01:03:54;;;;;;;2.08;0.98;;;6.70;99.90;;;;;;5012615;28;20089;-77
2023/10/15 01:08:58;;;;;;;3.13;0.88;;;6.70;99.90;;;;;;4996901;28;20048;-76
2023/10/15 01:11:28;;;;;;;1.95;0.65;;;6.70;99.90;;;;;;5013448;28;20093;-77
2023/10/15 01:13:56;;;;;;;2.00;0.60;;;6.70;99.90;;;;;;5013449;28;20379;-77
2023/10/15 01:16:23;;;;;;;1.48;0.75;;;6.70;99.90;;;;;;5012538;28;20042;-77
2023/10/15 01:19:07;;;;;;;2.75;0.60;;;6.70;99.90;;;;;;5013278;28;20517;-77
2023/10/15 01:22:18;;;;;;;2.38;0.70;;;6.70;99.90;;;;;;5016457;28;20064;-76
2023/10/15 01:24:36;;;;;;;2.25;0.63;;;6.70;99.90;;;;;;5012830;28;20402;-77
2023/10/15 01:27:10;;;;;;;1.13;0.55;;;6.70;99.90;;;;;;5016590;28;20570;-77
2023/10/15 01:29:44;;;;;;;0.77;0.50;;;6.60;99.90;;;;;;5016828;28;20060;-77
2023/10/15 01:32:13;;;;;;;0.98;0.40;;;6.70;99.90;;;;;;5016190;28;20053;-77
2023/10/15 01:34:45;;;;;;;1.98;0.60;;;6.70;99.90;;;;;;5016826;28;20104;-76
2023/10/15 01:37:15;;;;;;;1.42;0.68;;;6.60;99.90;;;;;;5016834;28;20129;-75
2023/10/15 01:39:53;;;;;;;1.08;0.50;;;6.60;99.90;;;;;;5017082;28;20402;-76
2023/10/15 01:45:38;;;;;;;3.13;0.60;;;6.60;99.90;;;;;;5015763;28;20137;-76
2023/10/15 01:53:04;;;;;;;4.30;0.80;;;6.80;99.90;;;;;;5015487;28;20056;-75
2023/10/15 01:55:35;;;;;;;2.53;0.60;;;6.80;99.90;;;;;;4999227;28;20042;-75
2023/10/15 01:58:11;;;;;;;2.13;0.60;;;6.80;99.90;;;;;;5016998;28;20378;-76
2023/10/15 02:03:08;;;;;;;1.35;0.50;;;6.80;99.90;;;;;;5016232;28;20057;-76
2023/10/15 02:05:44;;;;;;;2.30;0.70;;;6.80;99.90;;;;;;5015237;28;20046;-76
2023/10/15 02:08:16;;;;;;;1.23;0.70;;;6.80;99.90;;;;;;5015961;28;20049;-76
2023/10/15 02:10:48;;;;;;;3.80;0.75;;;6.80;99.90;;;;;;5015090;28;20050;-76
2023/10/15 02:13:20;;;;;;;1.65;1.00;;;6.70;99.90;;;;;;5015488;28;20427;-76
2023/10/15 02:15:49;;;;;;;1.98;0.70;;;6.70;99.90;;;;;;5015399;28;20132;-76
2023/10/15 02:18:17;;;;;;;2.05;0.77;;;6.60;99.90;;;;;;5016071;28;20048;-76
2023/10/15 02:21:00;;;;;;;3.35;0.80;;;6.70;99.90;;;;;;4998723;28;20100;-76
2023/10/15 02:23:27;;;;;;;1.35;0.60;;;6.60;99.90;;;;;;4998928;28;20041;-75
2023/10/15 02:25:57;;;;;;;1.88;0.60;;;6.50;99.90;;;;;;5015878;28;20052;-75
2023/10/15 02:28:31;;;;;;;1.50;0.60;;;6.50;99.90;;;;;;5014943;28;20053;-76
2023/10/15 02:31:06;;;;;;;3.60;0.70;;;6.40;99.90;;;;;;5015518;28;20133;-75
2023/10/15 02:33:32;;;;;;;1.65;0.60;;;6.30;99.90;;;;;;5000334;28;20104;-76
2023/10/15 02:36:06;;;;;;;2.53;0.80;;;6.30;99.90;;;;;;5015753;28;20112;-76
2023/10/15 02:38:37;;;;;;;1.85;0.50;;;6.20;99.90;;;;;;4998750;28;20045;-76
2023/10/15 02:41:04;;;;;;;3.45;0.70;;;6.20;99.90;;;;;;5015671;28;20050;-75
2023/10/15 02:43:31;;;;;;;2.55;0.70;;;6.10;99.90;;;;;;4998181;28;20530;-75
2023/10/15 02:46:00;;;;;;;3.45;0.80;;;6.10;99.90;;;;;;5014095;28;20566;-75
2023/10/15 02:48:31;;;;;;;2.47;0.73;;;6.10;99.90;;;;;;5015404;28;20045;-76
2023/10/15 02:53:33;;;;;;;3.17;0.73;;;6.10;99.90;;;;;;4998720;28;20056;-76
2023/10/15 02:55:59;;;;;;;1.70;0.60;;;6.00;99.90;;;;;;5014704;28;20050;-76
2023/10/15 02:58:28;;;;;;;3.97;1.00;;;6.00;99.90;;;;;;4998039;28;20049;-77
2023/10/15 03:00:59;;;;;;;2.80;0.73;;;6.00;99.90;;;;;;4998741;28;20112;-75
2023/10/15 03:03:33;;;;;;;1.40;0.85;;;6.00;99.90;;;;;;5014234;28;20486;-76
2023/10/15 03:05:59;;;;;;;1.30;1.13;;;6.00;99.90;;;;;;5014583;28;20045;-75
2023/10/15 03:08:31;;;;;;;3.10;0.98;;;6.00;99.90;;;;;;5014119;28;20053;-75
2023/10/15 03:11:12;;;;;;;1.67;0.70;;;6.10;99.90;;;;;;5014418;28;20501;-75
2023/10/15 03:13:53;;;;;;;2.85;1.45;;;6.20;99.90;;;;;;5015739;28;20386;-75
2023/10/15 03:16:30;;;;;;;2.10;0.70;;;6.20;99.90;;;;;;4998511;28;20054;-77
2023/10/15 03:18:56;;;;;;;1.15;0.63;;;6.30;99.90;;;;;;5014863;28;20173;-77
2023/10/15 03:21:26;;;;;;;4.25;0.88;;;6.30;99.90;;;;;;5013989;28;20061;-76
2023/10/15 03:23:58;;;;;;;4.38;0.90;;;6.30;99.90;;;;;;5013729;28;20048;-77
2023/10/15 03:26:24;;;;;;;2.00;0.88;;;6.30;99.90;;;;;;5014576;28;20050;-77
2023/10/15 03:28:51;;;;;;;1.67;0.60;;;6.30;99.90;;;;;;5013682;28;20453;-77
2023/10/15 03:31:23;;;;;;;2.60;0.70;;;6.30;99.90;;;;;;5013840;28;20049;-77
2023/10/15 03:36:48;;;;;;;2.58;0.70;;;6.30;99.90;;;;;;4999623;28;20058;-76
2023/10/15 03:39:16;;;;;;;1.67;0.60;;;6.20;99.90;;;;;;5014435;28;20052;-77
2023/10/15 03:41:52;;;;;;;2.08;0.80;;;6.10;99.90;;;;;;4996698;28;20058;-76
2023/10/15 03:44:27;;;;;;;1.30;0.65;;;6.00;99.90;;;;;;5013927;28;20046;-75
2023/10/15 03:46:53;;;;;;;2.22;0.70;;;5.80;99.90;;;;;;4998357;28;20054;-76
2023/10/15 03:49:27;;;;;;;3.17;0.80;;;5.70;99.90;;;;;;5013896;28;20048;-75
2023/10/15 03:51:53;;;;;;;3.42;0.70;;;5.70;99.90;;;;;;5013360;28;20065;-76
2023/10/15 03:54:22;;;;;;;3.03;1.55;;;5.60;99.90;;;;;;5013333;28;20395;-75
2023/10/15 03:56:49;;;;;;;1.98;0.73;;;5.50;99.90;;;;;;4996894;28;20046;-76
2023/10/15 03:59:15;;;;;;;2.20;0.60;;;5.50;99.90;;;;;;5013073;28;20050;-76
2023/10/15 04:01:47;;;;;;;2.38;0.60;;;5.40;99.90;;;;;;5013997;28;20085;-76
2023/10/15 04:04:16;;;;;;;3.22;0.80;;;5.40;99.90;;;;;;4997721;28;20513;-76
2023/10/15 04:06:45;;;;;;;3.00;0.80;;;5.40;99.90;;;;;;5013177;28;20096;-76
2023/10/15 04:09:13;;;;;;;2.72;0.60;;;5.80;99.90;;;;;;5012559;28;20050;-76
2023/10/15 04:11:45;;;;;;;1.83;0.60;;;5.40;99.90;;;;;;5013931;28;20045;-76
2023/10/15 04:14:28;;;;;;;2.20;0.68;;;5.50;99.90;;;;;;5013715;28;20096;-76
2023/10/15 04:16:54;;;;;;;2.40;0.80;;;5.40;99.90;;;;;;5016514;28;20102;-76
2023/10/15 04:19:25;;;;;;;2.97;0.70;;;5.40;99.90;;;;;;5015500;28;20042;-76
2023/10/15 04:21:53;;;;;;;1.35;0.60;;;5.40;99.90;;;;;;5014021;28;20068;-76
2023/10/15 04:24:28;;;;;;;1.80;0.65;;;5.40;99.90;;;;;;5013995;28;20390;-76
2023/10/15 04:26:54;;;;;;;2.75;0.73;;;5.40;99.90;;;;;;4996893;28;20464;-76
2023/10/15 04:29:21;;;;;;;1.73;0.70;;;5.40;99.90;;;;;;5012565;28;20037;-76
2023/10/15 04:32:00;;;;;;;2.58;0.75;;;5.50;99.90;;;;;;5012926;28;20045;-75
2023/10/15 04:34:29;;;;;;;1.52;1.27;;;5.40;99.90;;;;;;5012832;28;20050;-76
2023/10/15 04:37:11;;;;;;;2.20;0.70;;;5.80;99.90;;;;;;5012789;28;20054;-76
2023/10/15 04:39:48;;;;;;;1.45;0.70;;;5.40;99.90;;;;;;5013181;28;20057;-76
2023/10/15 04:42:20;;;;;;;4.82;0.88;;;5.40;99.90;;;;;;4982089;28;20049;-76
2023/10/15 04:44:46;;;;;;;1.38;0.70;;;5.40;99.90;;;;;;5013600;28;20054;-76
2023/10/15 04:47:12;;;;;;;1.88;0.65;;;5.50;99.90;;;;;;5012444;28;20053;-76
2023/10/15 04:49:38;;;;;;;0.95;0.60;;;5.60;99.90;;;;;;5012452;28;20044;-77
2023/10/15 04:52:13;;;;;;;1.35;0.55;;;5.60;99.90;;;;;;5013944;28;20165;-76
2023/10/15 04:54:40;;;;;;;4.05;0.90;;;5.60;99.90;;;;;;5000057;28;20163;-75
2023/10/15 04:57:05;;;;;;;1.85;0.65;;;5.70;99.90;;;;;;5016592;28;20046;-75
2023/10/15 04:59:31;;;;;;;1.55;0.73;;;5.70;99.90;;;;;;5016413;28;20140;-75
2023/10/15 05:01:57;;;;;;;2.67;0.70;;;5.70;99.90;;;;;;5016469;28;20463;-75
2023/10/15 05:04:23;;;;;;;1.50;0.70;;;5.70;99.90;;;;;;5016474;28;20046;-76
2023/10/15 05:06:50;;;;;;;2.08;0.85;;;5.70;99.90;;;;;;5016486;28;20081;-75
2023/10/15 05:09:21;;;;;;;2.05;0.80;;;5.60;99.90;;;;;;5016301;28;20459;-75
2023/10/15 05:11:53;;;;;;;3.40;0.80;;;5.60;99.90;;;;;;5016721;28;20054;-76
2023/10/15 05:14:19;;;;;;;1.67;0.80;;;5.50;99.90;;;;;;5015773;28;20509;-75
2023/10/15 05:16:48;;;;;;;1.30;0.60;;;5.40;99.90;;;;;;5016272;28;20136;-76
2023/10/15 05:19:17;;;;;;;2.35;0.75;;;5.40;99.90;;;;;;5000019;28;20042;-77
2023/10/15 05:21:46;;;;;;;2.97;0.80;;;5.40;99.90;;;;;;5016162;28;20123;-76
2023/10/15 05:24:21;;;;;;;3.75;0.77;;;5.50;99.90;;;;;;4999325;28;20057;-76
2023/10/15 05:26:47;;;;;;;2.05;0.73;;;5.50;99.90;;;;;;5016924;28;20073;-76
2023/10/15 05:29:15;;;;;;;1.75;0.60;;;5.60;99.90;;;;;;4999448;28;20528;-76
2023/10/15 05:31:42;;;;;;;0.63;0.40;;;5.70;99.90;;;;;;5015779;28;20056;-75
2023/10/15 05:34:08;;;;;;;1.67;0.57;;;5.80;99.90;;;;;;4999580;28;20129;-77
2023/10/15 05:36:35;;;;;;;1.30;0.60;;;5.80;99.90;;;;;;5015948;28;20054;-77
2023/10/15 05:39:03;;;;;;;1.75;0.50;;;5.80;99.90;;;;;;5015716;28;20042;-76
2023/10/15 05:41:31;;;;;;;1.75;0.60;;;5.90;99.90;;;;;;5016771;28;20446;-76
2023/10/15 05:43:57;;;;;;;1.85;0.85;;;5.90;99.90;;;;;;5015265;28;20498;-76
2023/10/15 05:46:23;;;;;;;1.85;0.50;;;5.90;99.90;;;;;;5016898;28;20490;-76
2023/10/15 05:48:48;;;;;;;1.90;0.60;;;6.10;99.90;;;;;;5016541;28;20176;-77
2023/10/15 05:51:14;;;;;;;1.77;0.60;;;5.90;99.90;;;;;;5015206;28;20399;-76
2023/10/15 05:53:39;;;;;;;2.00;0.68;;;5.90;99.90;;;;;;4999150;28;20390;-75
2023/10/15 05:56:05;;;;;;;2.95;0.60;;;5.90;99.90;;;;;;5014734;28;20107;-76
2023/10/15 05:58:31;;;;;;;2.67;0.60;;;5.90;99.90;;;;;;4999022;28;20053;-76
2023/10/15 06:00:57;;;;;;;1.40;0.60;;;5.90;99.90;;;;;;4983253;28;20132;-75
2023/10/15 06:03:23;;;;;;;3.05;0.70;;;6.00;99.90;;;;;;4998645;28;20129;-75
2023/10/15 06:05:49;;;;;;;2.63;0.55;;;6.00;99.90;;;;;;5014805;28;20054;-76
2023/10/15 06:08:15;;;;;;;1.77;0.77;;;6.00;99.90;;;;;;5015803;28;20422;-75
2023/10/15 06:10:41;;;;;;;1.67;0.70;;;6.10;99.90;;;;;;4998956;28;20053;-75
2023/10/15 06:13:06;;;;;;;1.20;0.47;;;6.10;99.90;;;;;;5015444;28;20136;-75
2023/10/15 06:15:33;;;;;;;2.33;0.65;;;6.10;99.90;;;;;;5014955;28;20050;-75
2023/10/15 06:17:58;;;;;;;0.80;0.55;;;6.10;99.90;;;;;;5015154;28;20057;-76
2023/10/15 06:20:25;;;;;;;2.80;0.77;;;6.10;99.90;;;;;;5016116;28;20049;-74
2023/10/15 06:22:55;;;;;;;0.93;0.43;;;6.10;99.90;;;;;;5014965;28;20057;-76
2023/10/15 06:25:21;;;;;;;2.08;0.70;;;6.10;99.90;;;;;;4999183;28;20058;-75
2023/10/15 06:27:47;;;;;;;1.92;0.50;;;6.10;99.90;;;;;;5014520;28;20053;-76
2023/10/15 06:30:16;;;;;;;2.25;0.60;;;6.10;99.90;;;;;;5014649;28;20444;-75
2023/10/15 06:32:47;;;;;;;1.60;0.60;;;6.00;99.90;;;;;;4998780;28;20096;-76
2023/10/15 06:35:20;;;;;;;2.10;0.63;;;6.10;99.90;;;;;;5014894;28;20141;-75
2023/10/15 06:37:56;;;;;;;2.50;0.60;;;6.10;99.90;;;;;;5014508;28;20100;-75
2023/10/15 06:40:22;;;;;;;3.08;0.65;;;6.10;99.90;;;;;;5015020;28;20132;-75
2023/10/15 06:42:47;;;;;;;2.30;0.52;;;6.20;99.90;;;;;;5015700;28;20136;-75
2023/10/15 06:45:19;;;;;;;1.08;0.50;;;6.20;99.90;;;;;;4999095;28;20153;-75
2023/10/15 06:47:51;;;;;;;2.00;0.60;;;6.30;99.90;;;;;;4998432;28;20042;-75
2023/10/15 06:50:19;;;;;;;2.58;0.60;;;6.50;99.90;;;;;;5014795;28;20064;-76
2023/10/15 06:52:45;;;;;;;3.17;0.50;;;6.50;99.90;;;;;;4997389;28;20058;-66
2023/10/15 06:55:13;;;;;;;1.23;0.50;;;6.60;99.90;;;;;;5015348;28;20045;-66
2023/10/15 06:57:39;;;;;;;1.27;0.55;;;6.60;99.90;;;;;;5014628;28;20475;-66
2023/10/15 07:00:12;;;;;;;3.33;1.23;;;6.60;99.90;;;;;;5015244;28;20054;-66
2023/10/15 07:02:38;;;;;;;1.75;0.60;;;6.60;99.90;;;;;;5015059;28;20092;-66
2023/10/15 07:05:04;;;;;;;1.88;0.50;;;6.50;99.90;;;;;;5015000;28;20136;-66
2023/10/15 07:07:32;;;;;;;5.07;1.35;;;6.60;99.90;;;;;;5014930;28;20117;-66
2023/10/15 07:10:01;;;;;;;1.73;0.77;;;6.50;99.90;;;;;;5015043;28;20041;-66
2023/10/15 07:12:26;;;;;;;1.10;0.40;;;6.50;99.90;;;;;;5014893;28;20077;-66
2023/10/15 07:14:52;;;;;;;2.58;0.50;;;6.60;99.90;;;;;;5014959;28;20096;-66
2023/10/15 07:17:18;;;;;;;4.57;0.60;;;6.60;99.90;;;;;;5014269;28;20057;-66
2023/10/15 07:19:44;;;;;;;1.02;0.50;;;6.60;99.90;;;;;;5014887;28;20053;-66
2023/10/15 07:22:09;;;;;;;0.88;0.50;;;6.60;99.90;;;;;;5014894;28;20490;-66
2023/10/15 07:24:35;;;;;;;1.02;0.50;;;6.60;99.90;;;;;;5013566;28;20046;-66
2023/10/15 07:27:01;;;;;;;1.13;0.45;;;6.60;99.90;;;;;;5015669;28;20046;-66
2023/10/15 07:29:28;;;;;;;2.05;0.60;;;6.60;99.90;;;;;;5015364;28;20132;-66
2023/10/15 07:31:54;;;;;;;1.80;0.50;;;6.60;99.90;;;;;;5014667;28;20499;-66
2023/10/15 07:34:19;;;;;;;0.98;0.50;;;6.60;99.90;;;;;;5014644;28;20048;-66
2023/10/15 07:36:45;;;;;;;2.70;0.50;;;6.70;99.90;;;;;;5014351;28;20439;-65
2023/10/15 07:39:11;;;;;;;2.38;0.65;;;6.70;99.90;;;;;;5013306;28;20042;-66
2023/10/15 07:41:37;;;;;;;1.08;0.45;;;6.80;99.90;;;;;;5013129;28;20043;-66
2023/10/15 07:44:03;;;;;;;1.30;0.40;;;6.80;99.90;;;;;;5013741;28;20072;-65
2023/10/15 07:46:29;;;;;;;0.68;0.43;;;6.90;99.90;;;;;;5014052;28;20038;-66
2023/10/15 07:48:57;;;;;;;0.93;0.40;;;6.90;99.90;;;;;;5014495;28;20046;-66
2023/10/15 07:51:23;;;;;;;0.95;0.50;;;7.00;99.90;;;;;;5013843;28;20065;-66
2023/10/15 07:53:49;;;;;;;2.13;0.50;;;7.00;99.90;;;;;;5014514;28;20089;-66
2023/10/15 07:56:15;;;;;;;2.50;0.55;;;7.00;99.90;;;;;;5014711;28;20084;-65
2023/10/15 07:58:41;;;;;;;1.25;0.50;;;7.00;99.90;;;;;;5013001;28;20052;-66
2023/10/15 08:01:06;;;;;;;0.95;0.50;;;6.90;99.90;;;;;;5014087;28;20045;-77
2023/10/15 08:03:32;;;;;;;3.58;0.60;;;6.80;99.90;;;;;;5012850;28;20057;-77
2023/10/15 08:06:01;;;;;;;1.52;0.40;;;6.70;99.90;;;;;;5014345;28;20045;-75
2023/10/15 08:08:28;;;;;;;0.63;0.40;;;6.50;99.90;;;;;;5012813;28;20042;-75
2023/10/15 08:10:55;;;;;;;2.10;0.50;;;6.40;99.90;;;;;;4996556;28;20129;-75
2023/10/15 08:13:22;;;;;;;1.38;0.47;;;6.50;99.90;;;;;;5013034;28;20076;-75
2023/10/15 08:15:47;;;;;;;0.93;0.50;;;6.20;99.90;;;;;;5012825;28;20143;-76
2023/10/15 08:18:13;;;;;;;0.63;0.40;;;6.10;99.90;;;;;;4996619;28;20101;-75
2023/10/15 08:20:39;;;;;;;0.75;0.40;;;6.10;99.90;;;;;;4996511;28;20042;-74
2023/10/15 08:23:05;;;;;;;1.55;0.60;;;6.10;99.90;;;;;;5012696;28;20077;-75
2023/10/15 08:25:34;;;;;;;1.75;0.60;;;6.20;99.90;;;;;;5013744;28;20052;-76
2023/10/15 08:28:01;;;;;;;1.52;0.45;;;6.30;99.90;;;;;;5013575;28;20048;-75
2023/10/15 08:30:26;;;;;;;1.45;0.47;;;6.40;99.90;;;;;;5012717;28;20471;-78
2023/10/15 08:32:52;;;;;;;0.80;0.40;;;6.50;99.90;;;;;;4996766;28;20042;-79
2023/10/15 08:35:18;;;;;;;1.73;0.60;;;6.60;99.90;;;;;;5013398;28;20065;-76
2023/10/15 08:37:45;;;;;;;1.23;0.50;;;6.70;99.90;;;;;;4996252;28;20372;-75
2023/10/15 08:40:15;;;;;;;1.17;0.32;;;6.80;99.90;;;;;;5013571;28;20060;-75
2023/10/15 08:43:01;;;;;;;1.17;0.40;;;6.90;99.90;;;;;;5013550;28;20048;-76
2023/10/15 08:45:27;;;;;;;2.20;1.48;;;7.00;99.90;;;;;;5013352;28;20046;-76
2023/10/15 08:47:53;;;;;;;2.47;0.68;;;7.20;99.90;;;;;;5013239;28;20050;-75
2023/10/15 08:50:22;;;;;;;1.20;0.40;;;7.20;99.90;;;;;;5012925;28;20470;-76
2023/10/15 08:52:52;;;;;;;3.78;0.73;;;7.30;99.90;;;;;;5012208;28;20112;-77
2023/10/15 08:55:22;;;;;;;0.40;0.30;;;7.40;99.90;;;;;;4996921;28;20494;-78
2023/10/15 08:57:54;;;;;;;1.17;0.50;;;7.50;99.90;;;;;;5012954;28;20124;-77
2023/10/15 09:00:25;;;;;;;1.10;0.47;;;7.70;99.90;;;;;;5012059;28;20049;-77
2023/10/15 09:03:00;;;;;;;1.23;0.60;;;7.80;99.90;;;;;;5013515;28;20041;-77
2023/10/15 09:05:30;;;;;;;0.80;0.50;;;7.90;99.90;;;;;;4998759;28;20046;-74
2023/10/15 09:07:57;;;;;;;1.17;0.52;;;8.10;99.90;;;;;;5015763;28;20041;-75
2023/10/15 09:10:23;;;;;;;1.58;0.50;;;8.30;99.90;;;;;;4997377;28;20288;-75
2023/10/15 09:12:52;;;;;;;4.20;0.88;;;8.30;99.90;;;;;;5013061;28;20414;-77
2023/10/15 09:15:18;;;;;;;2.83;0.50;;;8.20;99.90;;;;;;4979900;28;20141;-74
2023/10/15 09:17:58;;;;;;;2.45;0.70;;;8.00;99.90;;;;;;5013867;28;20386;-75
2023/10/15 09:20:28;;;;;;;1.05;0.45;;;7.90;99.90;;;;;;5013340;28;20454;-76
2023/10/15 09:22:58;;;;;;;2.25;0.52;;;8.00;99.90;;;;;;5012995;28;20058;-81
2023/10/15 09:25:29;;;;;;;1.50;0.50;;;8.20;99.90;;;;;;5012296;28;20050;-77
2023/10/15 09:27:56;;;;;;;3.40;0.60;;;8.50;99.90;;;;;;5012156;28;20049;-77
2023/10/15 09:30:26;;;;;;;2.20;0.55;;;8.60;99.90;;;;;;5012343;28;20050;-75
2023/10/15 09:32:54;;;;;;;1.38;0.50;;;8.40;99.90;;;;;;5012662;28;20057;-76
2023/10/15 09:35:22;;;;;;;1.10;0.50;;;8.30;99.90;;;;;;5013647;28;20056;-76
2023/10/15 09:37:48;;;;;;;2.83;0.90;;;8.60;99.90;;;;;;5011975;28;20140;-75
2023/10/15 09:40:24;;;;;;;2.35;0.65;;;8.90;99.90;;;;;;4997338;28;20129;-75
2023/10/15 09:42:53;;;;;;;2.33;0.63;;;9.00;99.90;;;;;;4999669;28;20485;-74
2023/10/15 09:45:23;;;;;;;1.20;0.40;;;8.90;99.90;;;;;;5016520;28;20486;-74
2023/10/15 09:48:09;;;;;;;2.13;0.82;;;8.70;99.90;;;;;;5016549;28;20045;-75
2023/10/15 09:50:38;;;;;;;2.72;0.60;;;8.60;99.90;;;;;;5015527;28;20054;-76
2023/10/15 09:53:10;;;;;;;1.58;0.50;;;8.70;99.90;;;;;;5016356;28;20418;-76
2023/10/15 09:55:37;;;;;;;1.67;0.70;;;9.20;99.90;;;;;;5015659;28;20054;-75
2023/10/15 09:58:04;;;;;;;0.68;0.40;;;9.80;99.90;;;;;;5015538;28;20060;-76
2023/10/15 10:03:37;;;;;;;3.85;0.68;;;9.90;99.90;;;;;;5015785;28;20141;-73
2023/10/15 10:06:32;;;;;;;2.45;0.65;;;9.90;99.90;;;;;;4999145;28;20050;-76
2023/10/15 10:09:21;;;;;;;1.60;0.50;;;10.10;99.90;;;;;;5009950;28;20057;-77
2023/10/15 10:12:16;;;;;;;1.70;0.60;;;10.20;99.90;;;;;;4999116;28;20056;-78
2023/10/15 10:14:58;;;;;;;2.97;0.90;;;10.50;99.90;;;;;;4998947;28;20173;-78
2023/10/15 10:17:25;;;;;;;2.38;1.10;;;10.30;99.90;;;;;;5015723;28;20374;-77
2023/10/15 10:19:52;;;;;;;3.13;0.75;;;10.00;99.90;;;;;;5014845;28;20046;-76
2023/10/15 10:22:28;;;;;;;3.47;0.60;;;9.80;99.90;;;;;;5014902;28;20046;-78
2023/10/15 10:24:58;;;;;;;;;;;9.70;99.90;;;;;;5016134;28;20053;-76
2023/10/15 10:27:25;;;;;;;5.68;0.55;;;9.60;99.90;;;;;;5015404;28;19944;-76
2023/10/15 10:29:54;;;;;;;2.75;0.75;;;9.80;99.90;;;;;;5014656;28;20049;-76
2023/10/15 10:32:23;;;;;;;1.88;0.70;;;9.90;99.90;;;;;;5015476;28;20054;-75
2023/10/15 10:35:14;;;;;;;3.05;0.70;;;9.80;99.90;;;;;;4998359;28;20054;-76
2023/10/15 10:38:06;;;;;;;4.57;0.73;;;10.30;99.90;;;;;;4998711;28;20057;-76
2023/10/15 10:40:47;;;;;;;2.72;0.65;;;10.90;99.90;;;;;;5014589;28;20131;-75
2023/10/15 10:43:17;;;;;;;1.33;0.50;;;11.20;99.90;;;;;;5014646;28;20058;-74
2023/10/15 10:45:55;;;;;;;2.47;0.70;;;11.40;99.90;;;;;;5014504;28;20061;-76
2023/10/15 10:48:38;;;;;;;3.50;0.90;;;11.70;99.90;;;;;;5015588;28;20490;-74
2023/10/15 10:51:13;;;;;;;1.20;0.55;;;11.90;99.90;;;;;;5014609;28;20069;-74
2023/10/15 10:53:59;;;;;;;3.95;0.90;;;12.20;99.90;;;;;;4997558;28;20050;-75
2023/10/15 10:56:44;;;;;;;2.08;0.70;;;12.40;99.90;;;;;;5015296;28;20053;-74
2023/10/15 10:59:14;;;;;;;2.42;0.57;;;12.50;99.90;;;;;;5014135;28;20096;-75
2023/10/15 11:01:47;;;;;;;1.77;0.70;;;12.20;99.90;;;;;;5013966;28;20136;-77
2023/10/15 11:04:16;;;;;;;2.22;0.60;;;11.70;99.90;;;;;;5014924;28;20050;-75
2023/10/15 11:06:45;;;;;;;2.70;0.75;;;11.10;99.90;;;;;;5014832;28;20076;-75
2023/10/15 11:09:22;;;;;;;2.20;0.70;;;10.40;99.90;;;;;;4998563;28;20093;-76
2023/10/15 11:11:58;;;;;;;2.17;0.57;;;9.90;99.90;;;;;;5014606;28;20058;-76
2023/10/15 11:14:27;;;;;;;3.03;0.68;;;9.60;99.90;;;;;;5013994;28;20132;-75
2023/10/15 11:16:55;;;;;;;2.20;0.60;;;9.50;99.90;;;;;;5015355;28;20129;-76
2023/10/15 11:19:21;;;;;;;1.25;0.50;;;9.50;99.90;;;;;;4997554;28;20402;-76
2023/10/15 11:21:49;;;;;;;3.20;0.70;;;9.50;99.90;;;;;;5013593;28;20497;-81
2023/10/15 11:24:16;;;;;;;2.70;0.70;;;9.50;99.90;;;;;;5013472;28;20140;-81
2023/10/15 11:26:44;;;;;;;4.00;0.63;;;9.60;99.90;;;;;;5014533;28;20049;-81
2023/10/15 11:29:10;;;;;;;3.05;0.70;;;9.50;99.90;;;;;;4997109;28;20042;-82
2023/10/15 11:31:38;;;;;;;2.30;0.60;;;9.60;99.90;;;;;;4997411;28;20053;-81
2023/10/15 11:34:05;;;;;;;1.27;0.52;;;9.60;99.90;;;;;;5014340;28;20155;-77
2023/10/15 11:36:35;;;;;;;3.45;1.10;;;9.60;99.90;;;;;;5013099;28;20498;-78
2023/10/15 11:39:08;;;;;;;2.45;0.70;;;9.70;99.90;;;;;;5014305;28;20057;-78
2023/10/15 11:41:38;;;;;;;1.65;0.68;;;9.70;99.90;;;;;;5013462;28;20042;-77
2023/10/15 11:44:06;;;;;;;3.33;0.80;;;9.80;99.90;;;;;;5013926;28;20050;-76
2023/10/15 11:46:35;;;;;;;2.25;0.70;;;9.90;99.90;;;;;;4996980;28;20111;-76
2023/10/15 11:49:01;;;;;;;3.33;0.60;;;9.90;99.90;;;;;;5013096;28;20057;-73
2023/10/15 11:51:31;;;;;;;3.17;0.85;;;10.00;99.90;;;;;;5013088;28;20112;-74
2023/10/15 11:54:01;;;;;;;2.20;0.68;;;10.20;99.90;;;;;;5014226;28;20112;-76
2023/10/15 11:56:31;;;;;;;3.30;0.80;;;10.20;99.90;;;;;;4998232;28;20356;-77
2023/10/15 11:58:58;;;;;;;2.47;0.70;;;10.20;99.90;;;;;;4997842;28;20046;-76
2023/10/15 12:01:26;;;;;;;2.53;0.80;;;10.30;99.90;;;;;;5013153;28;20041;-77
2023/10/15 12:03:56;;;;;;;2.22;0.80;;;10.40;99.90;;;;;;5012647;28;20564;-77
2023/10/15 12:06:21;;;;;;;3.25;0.70;;;10.60;99.90;;;;;;5013804;28;20046;-76
2023/10/15 12:08:48;;;;;;;4.05;0.70;;;10.70;99.90;;;;;;5012857;28;20043;-75
2023/10/15 12:11:18;;;;;;;2.97;0.75;;;10.80;99.90;;;;;;5013293;28;20441;-77
2023/10/15 12:13:47;;;;;;;2.75;0.70;;;10.80;99.90;;;;;;5013046;28;20089;-77
2023/10/15 12:16:13;;;;;;;4.28;0.73;;;10.90;99.90;;;;;;5012879;28;20054;-75
2023/10/15 12:18:39;;;;;;;5.10;0.70;;;11.00;99.90;;;;;;5012966;28;20046;-77
2023/10/15 12:21:06;;;;;;;2.72;0.63;;;11.00;99.90;;;;;;4996904;28;20493;-76
2023/10/15 12:23:32;;;;;;;2.08;0.60;;;10.90;99.90;;;;;;5012872;28;20046;-77
2023/10/15 12:25:57;;;;;;;3.47;0.70;;;11.00;99.90;;;;;;5013666;28;20050;-75
2023/10/15 12:28:23;;;;;;;3.25;0.85;;;10.90;99.90;;;;;;5013542;28;20046;-73
2023/10/15 12:30:49;;;;;;;2.03;0.60;;;10.90;99.90;;;;;;4996322;28;20060;-78
2023/10/15 12:33:17;;;;;;;2.08;0.60;;;10.90;99.90;;;;;;5013069;28;20046;-75
2023/10/15 12:35:44;;;;;;;3.03;0.73;;;11.00;99.90;;;;;;5012671;28;20045;-73
2023/10/15 12:38:16;;;;;;;2.67;0.68;;;11.00;99.90;;;;;;5012811;28;20060;-73
2023/10/15 12:40:45;;;;;;;1.90;0.77;;;11.10;99.90;;;;;;4998287;28;20077;-75
2023/10/15 12:43:17;;;;;;;1.60;0.60;;;11.10;99.90;;;;;;5013676;28;20137;-74
2023/10/15 12:45:46;;;;;;;2.90;0.80;;;11.00;99.90;;;;;;4998113;28;20076;-74
2023/10/15 12:48:12;;;;;;;2.75;0.75;;;10.80;99.90;;;;;;4996649;28;20075;-76
2023/10/15 12:50:38;;;;;;;4.38;0.90;;;10.60;99.90;;;;;;5012538;28;20053;-74
2023/10/15 12:53:04;;;;;;;2.33;0.80;;;10.40;99.90;;;;;;5012522;28;20506;-73
2023/10/15 12:55:30;;;;;;;2.60;0.70;;;10.20;99.90;;;;;;5012623;28;20466;-73
2023/10/15 12:57:55;;;;;;;1.83;0.60;;;10.10;99.90;;;;;;5012579;28;20057;-74
2023/10/15 13:00:21;;;;;;;3.38;1.35;;;10.00;99.90;;;;;;5013859;28;20077;-75
2023/10/15 13:02:49;;;;;;;2.38;0.65;;;10.00;99.90;;;;;;5012540;28;20044;-74
2023/10/15 13:05:15;;;;;;;2.22;0.52;;;9.90;99.90;;;;;;5012714;28;20050;-73
2023/10/15 13:07:41;;;;;;;2.42;1.38;;;9.90;99.90;;;;;;5012536;28;20498;-74
2023/10/15 13:10:09;;;;;;;2.80;0.70;;;9.90;99.90;;;;;;5012548;28;20046;-74
2023/10/15 13:12:38;;;;;;;3.25;0.70;;;10.00;99.90;;;;;;5012464;28;20049;-73
2023/10/15 13:15:08;;;;;;;1.88;0.63;;;10.10;99.90;;;;;;5012981;28;20042;-74
2023/10/15 13:17:34;;;;;;;2.95;0.73;;;10.30;99.90;;;;;;4999837;28;20454;-75
2023/10/15 13:20:04;;;;;;;4.50;0.77;;;10.40;99.90;;;;;;5032012;28;20423;-75
2023/10/15 13:22:32;;;;;;;2.65;0.73;;;10.40;99.90;;;;;;5017217;28;20050;-80
2023/10/15 13:24:58;;;;;;;2.05;0.60;;;10.30;99.90;;;;;;5016673;28;20124;-78
2023/10/15 13:27:24;;;;;;;4.97;1.00;;;10.30;99.90;;;;;;5000545;28;20129;-77
2023/10/15 13:29:50;;;;;;;2.67;0.90;;;10.10;99.90;;;;;;4999492;28;20048;-76
2023/10/15 13:32:16;;;;;;;1.67;0.70;;;10.10;99.90;;;;;;4983935;28;20045;-76
2023/10/15 13:34:42;;;;;;;1.67;0.60;;;10.10;99.90;;;;;;5016275;28;20475;-75